Time;durP1;ratioP1;P1;durP2;ratioP2;P2;SDS_P1;SDS_P2;PMS_P1;PMS_P2;Temp;Humidity;BMP_temperature;BMP_pressure;BME280_temperature;BME280_humidity;BME280_pressure;Samples;Min_cycle;Max_cycle;Signal;HPM_P1;HPM_P2
2022/02/18 08:37:51;;;;;;;;;10.50;6.25;;;;;17.31;58.81;100255.56;5053423;28;45900;-74
2022/02/18 08:40:17;;;;;;;;;6.75;5.00;;;;;17.44;59.08;100250.78;5033312;28;45755;-75
2022/02/18 08:42:42;;;;;;;;;11.50;6.00;;;;;17.64;59.13;100232.00;5044038;28;45516;-75
2022/02/18 08:45:08;;;;;;;;;6.25;4.50;;;;;17.89;58.57;100235.97;5043637;28;45460;-75
2022/02/18 08:47:33;;;;;;;;;11.75;6.00;;;;;18.18;58.82;100220.81;5047968;27;45944;-74
2022/02/18 08:49:59;;;;;;;;;8.50;5.50;;;;;18.47;58.17;100232.47;5044567;28;45780;-74
2022/02/18 08:52:24;;;;;;;;;10.75;7.25;;;;;18.72;57.82;100225.53;5047084;28;45958;-73
2022/02/18 08:54:50;;;;;;;;;8.50;5.25;;;;;19.02;57.00;100220.88;5041262;28;46777;-75
2022/02/18 08:57:15;;;;;;;;;8.00;4.33;;;;;19.29;56.88;100203.00;5040769;28;46976;-74
2022/02/18 08:59:41;;;;;;;;;6.67;6.00;;;;;19.56;56.61;100208.47;5046171;28;45524;-72
2022/02/18 09:02:08;;;;;;;;;8.25;6.25;;;;;19.81;55.68;100209.50;5045431;28;45583;-71
2022/02/18 09:04:34;;;;;;;;;8.25;6.00;;;;;20.04;55.78;100202.78;5047602;28;45407;-72
2022/02/18 09:06:59;;;;;;;;;6.67;3.33;;;;;20.23;54.91;100205.28;5045673;28;50232;-71
2022/02/18 09:09:25;;;;;;;;;10.00;6.33;;;;;20.43;54.63;100209.59;5044207;28;50693;-72
2022/02/18 09:11:50;;;;;;;;;9.00;4.00;;;;;20.60;54.33;100216.75;5045050;28;45575;-72
2022/02/18 09:14:16;;;;;;;;;9.33;5.33;;;;;20.77;54.27;100231.13;5047101;28;53331;-73
2022/02/18 09:16:43;;;;;;;;;10.67;5.67;;;;;20.94;53.87;100223.16;5045655;28;46143;-71
2022/02/18 09:19:08;;;;;;;;;3.33;2.33;;;;;21.03;51.76;100216.78;5037188;28;45357;-75
2022/02/18 09:21:34;;;;;;;;;2.00;1.00;;;;;21.09;49.92;100214.41;5033145;28;45483;-74
2022/02/18 09:23:59;;;;;;;;;1.00;1.00;;;;;21.06;49.50;100232.63;5044832;28;45484;-71
2022/02/18 09:26:26;;;;;;;;;0.67;0.67;;;;;21.01;49.29;100216.06;5043637;28;46162;-72
2022/02/18 09:28:52;;;;;;;;;2.00;1.33;;;;;20.97;49.45;100217.41;5046316;28;46851;-72
2022/02/18 09:31:17;;;;;;;;;3.33;2.00;;;;;20.97;49.95;100208.50;5046422;28;45509;-72
2022/02/18 09:33:43;;;;;;;;;3.33;2.00;;;;;21.01;50.18;100201.75;5045462;28;48977;-72
2022/02/18 09:36:08;;;;;;;;;1.00;1.00;;;;;21.08;49.51;100208.16;5049829;28;46026;-72
2022/02/18 09:38:36;;;;;;;;;1.00;1.00;;;;;21.16;49.98;100202.78;5044926;28;45450;-73
2022/02/18 09:41:01;;;;;;;;;1.00;1.00;;;;;21.26;49.51;100208.03;5066818;28;45623;-72
2022/02/18 09:43:28;;;;;;;;;1.00;1.00;;;;;21.35;49.29;100211.59;5065543;28;45810;-72
2022/02/18 09:45:53;;;;;;;;;0.00;0.00;;;;;21.41;49.41;100200.13;5047992;28;47246;-72
2022/02/18 09:48:19;;;;;;;;;1.00;1.00;;;;;21.52;49.16;100190.84;5056412;28;45635;-73
2022/02/18 09:50:44;;;;;;;;;3.67;0.67;;;;;21.60;49.41;100200.81;5047996;28;45419;-72
2022/02/18 09:53:10;;;;;;;;;1.00;1.00;;;;;21.68;49.53;100200.81;5052222;28;46376;-72
2022/02/18 09:55:39;;;;;;;;;1.00;1.00;;;;;21.77;49.42;100181.91;5035632;28;46070;-72
2022/02/18 09:58:05;;;;;;;;;2.00;0.67;;;;;21.83;49.61;100197.47;5053352;28;46241;-72
2022/02/18 10:00:31;;;;;;;;;2.00;0.67;;;;;21.89;49.68;100198.63;5050338;28;45389;-72
2022/02/18 10:02:56;;;;;;;;;0.33;0.33;;;;;21.93;49.30;100192.72;5051477;28;45494;-72
2022/02/18 10:05:22;;;;;;;;;2.67;1.00;;;;;21.96;49.07;100186.94;5050223;28;46262;-74
2022/02/18 10:08:12;;;;;;;;;1.00;1.00;;;;;22.03;49.03;100192.53;5052042;28;45555;-74
2022/02/18 10:10:40;;;;;;;;;3.00;3.00;;;;;22.10;48.97;100196.22;5049147;28;45507;-73
2022/02/18 10:13:22;;;;;;;;;29.67;21.67;;;;;22.17;48.70;100203.66;5053220;28;45476;-73
2022/02/18 10:15:47;;;;;;;;;22.67;16.00;;;;;22.18;49.22;100184.56;5051273;28;46139;-73
2022/02/18 10:18:13;;;;;;;;;17.00;15.00;;;;;22.20;48.86;100184.38;5034699;28;45626;-73
2022/02/18 10:20:43;;;;;;;;;20.00;14.00;;;;;22.21;48.97;100177.97;5048014;28;45721;-73
2022/02/18 10:23:09;;;;;;;;;21.67;14.00;;;;;22.23;49.31;100171.38;5052618;28;45634;-74
2022/02/18 10:25:37;;;;;;;;;19.33;13.33;;;;;22.25;49.24;100185.53;5052463;28;45624;-73
2022/02/18 10:28:04;;;;;;;;;23.33;13.00;;;;;22.28;48.84;100186.22;5048062;28;45453;-72
2022/02/18 10:30:31;;;;;;;;;6.00;4.67;;;;;22.33;47.78;100178.44;5049163;28;45568;-72
2022/02/18 10:32:58;;;;;;;;;14.33;11.00;;;;;22.32;48.07;100161.34;5054501;28;45501;-73
2022/02/18 10:35:32;;;;;;;;;17.00;10.00;;;;;22.34;48.34;100153.06;5060963;28;45533;-73
2022/02/18 10:37:57;;;;;;;;;13.67;10.67;;;;;22.34;48.42;100170.16;5038826;28;45749;-73
2022/02/18 10:40:23;;;;;;;;;15.67;10.00;;;;;22.37;48.05;100155.44;5041106;28;45562;-72
2022/02/18 10:42:52;;;;;;;;;13.00;9.00;;;;;22.38;48.41;100173.34;5050810;28;45711;-72
2022/02/18 10:45:23;;;;;;;;;14.00;10.00;;;;;22.41;48.01;100156.78;5048710;28;46445;-73
2022/02/18 10:47:51;;;;;;;;;14.33;7.00;;;;;22.43;48.04;100151.19;5047922;28;45694;-73
2022/02/18 10:50:21;;;;;;;;;12.33;11.00;;;;;22.48;48.59;100154.22;5050217;28;45502;-73
2022/02/18 10:53:08;;;;;;;;;19.33;10.00;;;;;22.51;47.99;100152.00;5051675;28;45456;-73
2022/02/18 10:55:46;;;;;;;;;15.67;7.67;;;;;22.54;48.53;100145.44;5050219;28;45664;-73
2022/02/18 10:58:11;;;;;;;;;10.67;5.67;;;;;22.57;48.34;100139.69;5047881;28;45478;-73
2022/02/18 11:00:37;;;;;;;;;4.33;4.33;;;;;22.59;48.18;100115.13;5045206;28;45576;-73
2022/02/18 11:03:02;;;;;;;;;8.67;5.67;;;;;22.60;48.22;100139.31;5048743;28;54476;-72
2022/02/18 11:05:30;;;;;;;;;14.00;7.00;;;;;22.63;48.61;100120.03;5051049;28;46166;-74
2022/02/18 11:07:56;;;;;;;;;8.00;6.00;;;;;22.66;48.21;100116.13;5053289;28;45478;-73
2022/02/18 11:10:37;;;;;;;;;9.00;6.33;;;;;22.68;48.04;100115.94;5050058;28;45514;-73
2022/02/18 11:13:03;;;;;;;;;10.00;8.00;;;;;22.68;48.33;100107.84;5050139;28;45479;-72
2022/02/18 11:15:29;;;;;;;;;8.67;6.00;;;;;22.70;48.21;100116.59;5043385;28;46140;-73
2022/02/18 11:17:58;;;;;;;;;5.00;5.00;;;;;22.72;48.06;100112.69;5040133;28;45371;-73
2022/02/18 11:20:25;;;;;;;;;4.00;4.00;;;;;22.73;48.30;100122.50;5050910;28;45342;-72
2022/02/18 11:22:55;;;;;;;;;7.67;6.33;;;;;22.73;48.04;100122.50;5047566;28;45544;-71
2022/02/18 11:25:21;;;;;;;;;10.00;6.00;;;;;22.75;48.19;100114.19;5054455;28;45513;-71
2022/02/18 11:27:47;;;;;;;;;7.67;6.67;;;;;22.76;48.50;100116.72;5048267;28;45731;-72
2022/02/18 11:30:12;;;;;;;;;6.33;5.00;;;;;22.76;48.52;100099.66;5048737;28;45392;-71
2022/02/18 11:33:04;;;;;;;;;13.00;7.00;;;;;22.79;48.37;100103.84;5048679;28;45613;-71
2022/02/18 11:36:02;;;;;;;;;8.67;6.33;;;;;22.81;48.43;100105.34;5051677;28;46922;-72
2022/02/18 11:38:51;;;;;;;;;14.00;7.67;;;;;22.84;48.28;100112.31;5046073;28;45436;-72
2022/02/18 11:41:44;;;;;;;;;9.67;5.00;;;;;22.85;48.16;100114.81;5046027;28;45421;-73
2022/02/18 11:44:12;;;;;;;;;9.00;5.33;;;;;22.85;48.47;100116.69;5051772;28;45593;-72
2022/02/18 11:46:37;;;;;;;;;10.33;6.00;;;;;22.84;48.43;100113.13;5042410;28;45562;-72
2022/02/18 11:49:08;;;;;;;;;12.67;5.00;;;;;22.85;48.38;100106.69;5050021;28;45612;-72
2022/02/18 11:51:45;;;;;;;;;6.33;5.00;;;;;22.85;48.05;100095.03;5041649;28;45266;-71
2022/02/18 11:54:37;;;;;;;;;3.67;3.33;;;;;22.87;47.89;100106.50;5045923;28;46296;-72
2022/02/18 11:57:04;;;;;;;;;6.33;3.67;;;;;22.85;48.22;100105.88;5038228;28;46265;-71
2022/02/18 11:59:45;;;;;;;;;6.33;6.33;;;;;22.83;48.24;100105.19;5048337;28;45533;-71
2022/02/18 12:02:11;;;;;;;;;6.33;3.67;;;;;22.80;47.96;100110.97;5046970;28;45621;-72
2022/02/18 12:04:38;;;;;;;;;6.00;5.67;;;;;22.79;47.93;100109.25;5050477;28;45473;-72
2022/02/18 12:07:23;;;;;;;;;6.00;4.33;;;;;22.76;47.84;100102.34;5038252;28;45534;-72
2022/02/18 12:09:48;;;;;;;;;7.67;5.33;;;;;22.74;47.37;100116.09;5048002;28;46259;-72
2022/02/18 12:12:43;;;;;;;;;5.33;5.33;;;;;22.73;47.56;100127.06;5047655;28;45317;-73
2022/02/18 12:15:13;;;;;;;;;8.33;5.67;;;;;22.73;48.01;100149.53;5040698;28;45990;-73
2022/02/18 12:17:41;;;;;;;;;7.00;3.67;;;;;22.74;48.07;100194.53;5044248;28;46906;-73
2022/02/18 12:20:24;;;;;;;;;4.00;4.00;;;;;22.75;47.74;100190.81;5042703;28;45617;-72
2022/02/18 12:22:49;;;;;;;;;4.00;4.00;;;;;22.77;48.23;100244.75;5035071;28;45512;-72
2022/02/18 12:25:20;;;;;;;;;6.67;3.00;;;;;22.75;48.32;100227.81;5049269;28;45916;-72
2022/02/18 12:27:46;;;;;;;;;5.00;4.00;;;;;22.74;48.03;100223.44;5048247;28;45518;-72
2022/02/18 12:30:21;;;;;;;;;5.33;3.00;;;;;22.73;48.00;100217.16;5045040;28;45498;-72
2022/02/18 12:32:51;;;;;;;;;5.33;5.33;;;;;22.72;47.75;100209.25;5041239;28;48819;-72
2022/02/18 12:35:27;;;;;;;;;4.67;2.33;;;;;22.71;47.70;100238.16;5050135;28;45552;-73
2022/02/18 12:37:53;;;;;;;;;4.00;4.00;;;;;22.69;47.49;100215.88;5046092;28;47340;-72
2022/02/18 12:40:19;;;;;;;;;23.33;16.00;;;;;22.71;46.79;100234.59;5043307;28;45394;-72
2022/02/18 12:42:45;;;;;;;;;31.33;18.33;;;;;22.68;46.83;100222.25;5046990;28;45894;-72
2022/02/18 12:45:11;;;;;;;;;21.67;16.33;;;;;22.64;47.11;100204.69;5046774;28;45587;-71
2022/02/18 12:47:39;;;;;;;;;18.67;13.00;;;;;22.63;47.31;100216.53;5048126;28;46183;-72
2022/02/18 12:50:13;;;;;;;;;21.00;12.33;;;;;22.62;47.70;100229.25;5050718;28;45428;-72
2022/02/18 12:52:42;;;;;;;;;21.00;12.33;;;;;22.63;47.23;100225.50;5045957;28;45421;-72
2022/02/18 12:55:10;;;;;;;;;18.33;12.33;;;;;22.65;47.62;100230.75;5038394;28;45666;-72
2022/02/18 12:57:41;;;;;;;;;26.67;13.00;;;;;22.70;47.89;100241.88;5044720;28;46708;-72
2022/02/18 13:00:16;;;;;;;;;18.67;11.67;;;;;22.75;47.79;100235.94;5047396;28;45495;-72
2022/02/18 13:02:49;;;;;;;;;14.33;10.00;;;;;22.82;47.59;100261.28;5048652;28;45481;-72
2022/02/18 13:05:18;;;;;;;;;11.00;10.00;;;;;22.90;47.66;100244.16;5047836;28;45589;-72
2022/02/18 13:07:50;;;;;;;;;18.67;10.67;;;;;22.98;47.97;100263.09;5047960;28;46628;-72
2022/02/18 13:10:20;;;;;;;;;13.33;11.00;;;;;23.07;47.81;100268.44;5037835;28;45382;-72
2022/02/18 13:12:49;;;;;;;;;11.67;8.67;;;;;23.13;48.05;100265.88;5040704;28;45387;-71
2022/02/18 13:15:22;;;;;;;;;19.67;14.00;;;;;23.24;47.90;100280.00;5041451;28;45429;-72
2022/02/18 13:17:51;;;;;;;;;16.67;10.67;;;;;23.31;47.98;100281.00;5047016;28;46258;-71
2022/02/18 13:20:19;;;;;;;;;21.33;12.00;;;;;23.41;47.64;100270.81;5035549;28;45447;-72
2022/02/18 13:22:45;;;;;;;;;13.67;11.67;;;;;23.49;47.94;100298.84;5051450;28;45465;-72
2022/02/18 13:25:30;;;;;;;;;15.33;10.33;;;;;23.54;47.62;100255.84;5041777;28;45409;-72
2022/02/18 13:27:59;;;;;;;;;14.00;10.67;;;;;23.58;47.62;100273.41;5042263;28;46281;-72
2022/02/18 13:30:28;;;;;;;;;12.00;9.33;;;;;23.61;47.69;100269.47;5041433;28;45435;-75
2022/02/18 13:32:58;;;;;;;;;10.67;8.00;;;;;23.62;47.61;100274.72;5045346;28;45561;-72
2022/02/18 13:35:24;;;;;;;;;12.00;11.67;;;;;23.63;47.35;100271.00;5053480;28;45423;-73
2022/02/18 13:37:49;;;;;;;;;14.33;9.00;;;;;23.64;47.26;100277.25;5046130;28;45586;-72
2022/02/18 13:40:15;;;;;;;;;11.67;7.00;;;;;23.63;47.24;100271.00;5042626;28;45323;-72
2022/02/18 13:42:50;;;;;;;;;10.67;8.67;;;;;23.63;47.18;100272.88;5043539;28;45925;-72
2022/02/18 13:45:16;;;;;;;;;15.67;9.33;;;;;23.62;47.73;100265.78;5045148;28;45562;-72
2022/02/18 13:47:42;;;;;;;;;13.67;7.33;;;;;23.61;47.91;100270.34;5051537;28;46089;-72
2022/02/18 13:50:08;;;;;;;;;13.00;9.67;;;;;23.62;47.82;100268.47;5051774;28;45521;-72
2022/02/18 13:52:34;;;;;;;;;14.33;7.00;;;;;23.63;47.71;100270.16;5053474;28;45669;-71
2022/02/18 13:54:59;;;;;;;;;10.33;7.33;;;;;23.68;47.89;100267.75;5054324;28;45455;-72
2022/02/18 13:57:31;;;;;;;;;11.00;8.67;;;;;23.71;47.79;100286.38;5053876;28;47193;-72
2022/02/18 13:59:56;;;;;;;;;10.00;8.00;;;;;23.74;47.93;100279.75;5048895;28;45833;-72
2022/02/18 14:02:24;;;;;;;;;16.67;8.33;;;;;23.79;47.94;100274.63;5048941;28;45471;-72
2022/02/18 14:04:53;;;;;;;;;11.00;9.33;;;;;23.83;47.65;100289.50;5053007;28;45424;-72
2022/02/18 14:07:28;;;;;;;;;12.00;9.00;;;;;23.89;47.68;100293.31;5055770;28;47221;-72
2022/02/18 14:09:56;;;;;;;;;8.00;4.00;;;;;23.93;47.80;100308.19;5042858;28;45499;-72
2022/02/18 14:12:41;;;;;;;;;8.67;7.33;;;;;23.98;47.73;100303.06;5043754;28;45444;-72
2022/02/18 14:15:10;;;;;;;;;7.33;5.00;;;;;24.03;47.27;100307.97;5042715;28;45473;-73
2022/02/18 14:17:41;;;;;;;;;8.00;5.00;;;;;24.04;47.75;100302.34;5051130;28;46425;-73
2022/02/18 14:20:07;;;;;;;;;8.67;6.00;;;;;24.05;47.73;100333.00;5045130;28;45455;-72
2022/02/18 14:22:34;;;;;;;;;9.00;6.33;;;;;24.06;47.76;100357.22;5052347;28;45533;-72
2022/02/18 14:25:03;;;;;;;;;10.67;8.33;;;;;24.06;47.29;100353.66;5047670;28;45544;-72
2022/02/18 14:27:28;;;;;;;;;5.00;4.00;;;;;24.03;44.91;100348.63;5048286;28;45433;-72
2022/02/18 14:29:58;;;;;;;;;8.00;5.67;;;;;23.95;44.04;100355.78;5049054;28;45449;-72
2022/02/18 14:32:34;;;;;;;;;20.33;15.00;;;;;23.87;44.85;100353.13;5047518;28;45787;-73
2022/02/18 14:35:03;;;;;;;;;17.00;11.33;;;;;23.80;44.96;100363.84;5052723;28;45663;-73
2022/02/18 14:37:29;;;;;;;;;22.33;14.33;;;;;23.78;45.48;100360.47;5051667;28;45393;-74
2022/02/18 14:40:15;;;;;;;;;21.33;13.00;;;;;23.80;45.54;100368.44;5053830;28;45539;-74
2022/02/18 14:42:42;;;;;;;;;19.33;11.67;;;;;23.84;45.69;100386.03;5040771;28;45495;-74
2022/02/18 14:45:09;;;;;;;;;14.33;10.33;;;;;23.89;45.61;100369.22;5042639;28;45469;-74
2022/02/18 14:47:38;;;;;;;;;14.00;10.33;;;;;23.94;45.89;100386.63;5051458;28;46325;-74
2022/02/18 14:50:05;;;;;;;;;13.33;11.33;;;;;23.98;45.92;100399.84;5038164;28;45452;-73
2022/02/18 14:52:31;;;;;;;;;16.00;10.00;;;;;24.03;46.05;100402.84;5052964;28;45400;-73
2022/02/18 14:54:57;;;;;;;;;11.33;9.00;;;;;24.06;46.11;100397.03;5040867;28;45359;-72
2022/02/18 14:57:26;;;;;;;;;17.33;12.33;;;;;24.08;45.62;100393.13;5047242;28;46243;-73
2022/02/18 14:59:51;;;;;;;;;12.33;10.33;;;;;24.10;45.31;100411.97;5048460;28;45372;-72
2022/02/18 15:02:18;;;;;;;;;14.33;8.00;;;;;24.12;45.44;100403.66;5039896;28;45448;-72
2022/02/18 15:04:44;;;;;;;;;13.67;11.67;;;;;24.12;45.32;100398.22;5054116;28;45437;-73
2022/02/18 15:07:09;;;;;;;;;14.00;8.00;;;;;24.10;43.04;100411.13;5050906;28;46096;-72
2022/02/18 15:09:35;;;;;;;;;10.00;7.67;;;;;24.01;41.37;100427.41;5042710;28;45327;-72
2022/02/18 15:12:01;;;;;;;;;7.67;5.67;;;;;23.85;40.70;100408.53;5043912;28;45468;-72
2022/02/18 15:14:26;;;;;;;;;6.00;4.00;;;;;23.69;41.07;100426.56;5051735;28;45576;-73
2022/02/18 15:16:52;;;;;;;;;6.33;4.67;;;;;23.54;41.04;100421.06;5053582;28;45395;-74
2022/02/18 15:19:17;;;;;;;;;4.67;4.67;;;;;23.43;41.48;100433.13;5039271;28;45382;-74
2022/02/18 15:21:43;;;;;;;;;6.33;4.00;;;;;23.33;42.18;100435.22;5046793;28;45571;-74
2022/02/18 15:24:08;;;;;;;;;8.00;6.67;;;;;23.24;41.91;100429.78;5042598;28;45551;-73
2022/02/18 15:52:37;;;;;;;;;11.33;5.67;;;;;20.61;45.75;100523.16;5094244;27;45568;-73
2022/02/18 15:55:03;;;;;;;;;6.67;5.00;;;;;20.58;46.08;100523.44;5091102;27;45713;-76
2022/02/18 15:57:28;;;;;;;;;7.67;5.00;;;;;20.61;47.08;100520.47;5089561;27;45841;-74
2022/02/18 15:59:57;;;;;;;;;4.00;3.00;;;;;20.74;46.90;100541.63;5091075;27;45442;-74
2022/02/18 16:02:22;;;;;;;;;8.00;7.00;;;;;20.91;46.91;100550.75;5090371;27;46137;-74
2022/02/18 16:04:49;;;;;;;;;4.33;4.33;;;;;21.14;47.00;100544.00;5089688;27;45495;-73
2022/02/18 16:07:15;;;;;;;;;9.67;6.00;;;;;21.37;47.27;100549.72;5096520;27;45402;-74
2022/02/18 16:09:42;;;;;;;;;4.33;4.00;;;;;21.63;47.32;100564.22;5094502;27;45523;-72
2022/02/18 16:12:08;;;;;;;;;4.67;4.67;;;;;21.87;47.42;100546.47;5091841;27;46088;-73
2022/02/18 16:14:34;;;;;;;;;9.33;6.00;;;;;22.13;47.36;100576.16;5092074;27;45497;-74
2022/02/18 16:17:00;;;;;;;;;5.33;4.33;;;;;22.35;46.98;100579.25;5092078;27;45260;-73
2022/02/18 16:19:29;;;;;;;;;4.67;4.00;;;;;22.55;46.47;100584.38;5101336;27;45324;-74
2022/02/18 16:21:57;;;;;;;;;5.33;3.33;;;;;22.74;46.35;100597.63;5084810;27;45488;-73
2022/02/18 16:24:23;;;;;;;;;4.33;3.33;;;;;22.91;46.39;100605.75;5090042;27;46093;-74
2022/02/18 16:26:55;;;;;;;;;4.00;2.00;;;;;23.07;46.01;100617.59;5092993;27;45588;-71
2022/02/18 16:29:21;;;;;;;;;3.33;2.33;;;;;23.18;45.64;100609.16;5087417;27;45616;-72
2022/02/18 16:31:47;;;;;;;;;5.00;3.00;;;;;23.27;45.49;100618.13;5089468;27;45519;-72
2022/02/18 16:34:13;;;;;;;;;3.67;3.67;;;;;23.38;45.05;100630.50;5086966;27;45506;-70
2022/02/18 16:36:38;;;;;;;;;4.33;2.33;;;;;23.43;44.92;100637.09;5093565;27;45460;-71
2022/02/18 16:39:04;;;;;;;;;4.00;4.00;;;;;23.51;45.22;100638.13;5089801;27;45503;-71
2022/02/18 16:41:30;;;;;;;;;9.33;4.67;;;;;23.59;45.53;100653.50;5090015;27;46045;-71
2022/02/18 16:43:56;;;;;;;;;5.33;2.33;;;;;23.63;44.85;100652.97;5091041;27;45484;-70
2022/02/18 16:46:21;;;;;;;;;5.67;3.00;;;;;23.66;44.83;100657.22;5091086;27;45335;-72
2022/02/18 16:48:47;;;;;;;;;4.33;3.00;;;;;23.72;44.90;100656.53;5091241;27;45447;-73
2022/02/18 16:51:15;;;;;;;;;5.00;2.33;;;;;23.79;44.73;100664.84;5093221;27;46101;-72
2022/02/18 16:53:47;;;;;;;;;1.33;1.00;;;;;23.89;45.09;100668.19;5087279;27;45485;-73
2022/02/18 16:56:12;;;;;;;;;4.67;3.67;;;;;24.00;44.95;100677.84;5090431;27;45540;-73
2022/02/18 16:58:38;;;;;;;;;5.00;2.00;;;;;24.11;44.94;100670.38;5089117;27;45647;-73
2022/02/18 17:01:04;;;;;;;;;4.67;4.00;;;;;24.22;45.01;100672.72;5089618;27;46253;-72
2022/02/18 17:03:29;;;;;;;;;3.00;1.33;;;;;24.31;44.81;100682.50;5076870;27;45775;-73
2022/02/18 17:05:55;;;;;;;;;4.00;3.00;;;;;24.41;45.16;100705.88;5075222;27;45909;-73
2022/02/18 17:08:20;;;;;;;;;4.00;2.33;;;;;24.51;44.63;100709.22;5075886;27;45477;-74
2022/02/18 17:10:46;;;;;;;;;6.00;3.00;;;;;24.58;45.02;100734.63;5074717;27;48228;-72
2022/02/18 17:13:13;;;;;;;;;1.33;1.33;;;;;24.66;44.98;100736.47;5076274;27;45536;-72
2022/02/18 17:15:39;;;;;;;;;2.33;2.33;;;;;24.72;44.66;100732.19;5075777;27;45405;-73
2022/02/18 17:18:04;;;;;;;;;5.00;3.00;;;;;24.79;44.78;100745.88;5076301;27;45278;-74
2022/02/18 17:20:30;;;;;;;;;4.00;3.00;;;;;24.82;44.40;100754.53;5075475;27;45375;-73
2022/02/18 17:22:56;;;;;;;;;2.33;2.33;;;;;24.85;44.45;100758.81;5073809;27;45702;-71
2022/02/18 17:25:22;;;;;;;;;2.33;2.33;;;;;24.88;44.53;100760.31;5072729;27;45707;-71
2022/02/18 17:27:48;;;;;;;;;2.00;1.67;;;;;24.90;44.66;100767.25;5076407;27;45395;-74
2022/02/18 17:30:13;;;;;;;;;4.00;4.00;;;;;24.92;44.31;100772.50;5072042;27;46300;-69
2022/02/18 17:32:39;;;;;;;;;4.00;2.33;;;;;24.91;44.15;100774.38;5075848;27;45581;-69
2022/02/18 17:35:10;;;;;;;;;7.00;4.67;;;;;24.92;44.22;100784.19;5074942;27;45682;-70
2022/02/18 17:37:36;;;;;;;;;7.00;4.00;;;;;24.92;44.13;100791.50;5074544;27;45605;-71
2022/02/18 17:40:04;;;;;;;;;3.00;3.00;;;;;24.93;44.16;100795.91;5076591;27;45405;-72
2022/02/18 17:42:30;;;;;;;;;3.33;3.00;;;;;24.91;44.30;100784.38;5074745;27;45519;-72
2022/02/18 17:44:55;;;;;;;;;5.33;3.33;;;;;24.91;44.12;100796.09;5072997;27;45516;-72
2022/02/18 17:47:20;;;;;;;;;4.67;3.00;;;;;24.88;43.05;100791.00;5075223;28;45529;-73
2022/02/18 17:49:46;;;;;;;;;2.33;2.33;;;;;24.86;43.46;100785.75;5087836;27;57445;-72
2022/02/18 17:52:11;;;;;;;;;3.33;2.67;;;;;24.83;43.91;100791.56;5075730;27;45562;-72
2022/02/18 17:54:38;;;;;;;;;7.00;1.67;;;;;24.82;43.94;100811.53;5074745;27;45458;-72
2022/02/18 17:57:04;;;;;;;;;5.00;4.00;;;;;24.80;43.81;100816.28;5073751;27;45470;-72
2022/02/18 17:59:29;;;;;;;;;2.67;2.67;;;;;24.79;44.13;100828.19;5073247;27;46261;-72
2022/02/18 18:01:54;;;;;;;;;3.00;2.00;;;;;24.77;43.98;100832.09;5076071;27;45471;-73
2022/02/18 18:04:20;;;;;;;;;4.00;4.00;;;;;24.76;43.33;100831.22;5075316;27;45532;-71
2022/02/18 18:06:46;;;;;;;;;4.33;4.33;;;;;24.71;43.66;100839.91;5075635;27;45642;-71
2022/02/18 18:09:11;;;;;;;;;6.00;3.33;;;;;24.66;43.58;100839.59;5072622;27;46884;-71
2022/02/18 18:11:37;;;;;;;;;4.67;4.00;;;;;24.64;43.83;100851.63;5072846;27;45539;-71
2022/02/18 18:14:04;;;;;;;;;4.33;4.33;;;;;24.61;44.06;100853.66;5072505;27;45452;-72
2022/02/18 18:16:31;;;;;;;;;3.33;3.00;;;;;24.58;43.96;100848.59;5076909;27;45616;-72
2022/02/18 18:18:58;;;;;;;;;6.00;5.33;;;;;24.59;43.94;100863.84;5075194;27;46812;-72
2022/02/18 18:21:28;;;;;;;;;9.67;3.00;;;;;24.59;43.87;100860.28;5073263;27;45413;-72
2022/02/18 18:23:54;;;;;;;;;4.00;3.00;;;;;24.56;44.09;100858.75;5074139;27;45386;-71
2022/02/18 18:26:20;;;;;;;;;8.00;5.00;;;;;24.57;44.09;100859.63;5073792;27;45586;-72
2022/02/18 18:28:46;;;;;;;;;3.00;3.00;;;;;24.55;44.14;100862.50;5074142;27;46882;-72
2022/02/18 18:31:12;;;;;;;;;3.67;3.67;;;;;24.55;44.13;100876.06;5080453;27;45380;-72
2022/02/18 18:33:38;;;;;;;;;4.67;3.00;;;;;24.54;44.46;100871.66;5073315;27;45429;-71
2022/02/18 18:36:04;;;;;;;;;8.67;5.67;;;;;24.54;44.24;100868.94;5073186;27;45477;-72
2022/02/18 18:38:30;;;;;;;;;7.00;3.00;;;;;24.54;44.55;100876.22;5074336;27;46132;-70
2022/02/18 18:40:56;;;;;;;;;4.00;3.67;;;;;24.54;44.43;100871.66;5073043;27;45471;-71
2022/02/18 18:43:22;;;;;;;;;4.33;1.67;;;;;24.53;44.47;100882.69;5074327;28;45249;-72
2022/02/18 18:45:47;;;;;;;;;5.00;3.67;;;;;24.53;44.55;100883.53;5074663;27;45431;-72
2022/02/18 18:48:13;;;;;;;;;5.67;3.00;;;;;24.53;44.53;100885.41;5071374;27;52835;-73
2022/02/18 18:50:38;;;;;;;;;6.33;4.33;;;;;24.54;43.40;100893.38;5070931;27;45518;-72
2022/02/18 18:53:03;;;;;;;;;5.00;2.00;;;;;24.55;43.44;100894.19;5071009;27;45392;-74
2022/02/18 18:55:29;;;;;;;;;2.33;2.33;;;;;24.56;43.07;100907.59;5073209;27;45445;-76
2022/02/18 18:57:54;;;;;;;;;6.00;3.67;;;;;24.56;42.86;100902.16;5071990;28;46658;-74
2022/02/18 19:00:20;;;;;;;;;5.00;3.00;;;;;24.55;43.18;100902.34;5071393;27;57331;-74
2022/02/18 19:02:45;;;;;;;;;2.00;1.67;;;;;24.54;43.45;100915.06;5071147;27;45466;-73
2022/02/18 19:05:11;;;;;;;;;9.00;7.00;;;;;24.51;43.06;100918.13;5068553;27;45649;-73
2022/02/18 19:07:37;;;;;;;;;6.67;5.00;;;;;24.50;43.03;100929.13;5062429;28;46870;-74
2022/02/18 19:10:04;;;;;;;;;5.33;3.67;;;;;24.43;43.01;100934.41;5071325;27;45552;-74
2022/02/18 19:12:31;;;;;;;;;10.00;5.00;;;;;24.32;43.15;100939.16;5065398;27;45518;-74
2022/02/18 19:14:57;;;;;;;;;6.67;4.00;;;;;24.21;43.28;100953.06;5067289;28;45908;-74
2022/02/18 19:17:22;;;;;;;;;9.00;3.00;;;;;24.12;43.29;100945.91;5061066;28;46224;-74
2022/02/18 19:19:48;;;;;;;;;3.00;2.67;;;;;24.01;43.44;100952.47;5073910;27;45521;-73
2022/02/18 19:22:14;;;;;;;;;9.00;5.00;;;;;23.89;43.69;100966.34;5065918;28;45506;-74
2022/02/18 19:24:39;;;;;;;;;5.00;5.00;;;;;23.80;43.47;100960.03;5068671;27;45710;-73
2022/02/18 19:27:04;;;;;;;;;11.67;8.33;;;;;23.73;43.54;100953.59;5067882;27;45946;-74
2022/02/18 19:29:30;;;;;;;;;4.00;4.00;;;;;23.69;43.79;100955.81;5062418;27;45466;-74
2022/02/18 19:31:55;;;;;;;;;6.00;4.33;;;;;23.64;43.28;100955.44;5073338;27;45579;-74
2022/02/18 19:34:20;;;;;;;;;5.67;4.33;;;;;23.58;44.00;100957.97;5069369;28;45492;-74
2022/02/18 19:36:45;;;;;;;;;5.33;4.00;;;;;23.54;43.77;100958.28;5070583;27;45971;-74
2022/02/18 19:39:13;;;;;;;;;7.33;5.00;;;;;23.47;44.11;100964.53;5068878;27;46253;-74
2022/02/18 19:41:39;;;;;;;;;4.00;3.00;;;;;23.41;43.92;100968.72;5071298;28;45431;-73
2022/02/18 19:44:05;;;;;;;;;9.00;5.00;;;;;23.37;44.03;100970.03;5070430;27;45411;-74
2022/02/18 19:46:30;;;;;;;;;4.00;2.00;;;;;23.32;44.22;100980.47;5073354;27;46452;-74
2022/02/18 19:48:57;;;;;;;;;7.67;6.33;;;;;23.28;44.02;100986.25;5075299;27;45580;-74
2022/02/18 19:51:23;;;;;;;;;7.00;5.00;;;;;23.25;42.76;100986.56;5075332;27;45564;-75
2022/02/18 19:53:48;;;;;;;;;7.00;4.67;;;;;23.25;43.08;100991.97;5073348;27;45524;-75
2022/02/18 19:56:14;;;;;;;;;12.67;5.00;;;;;23.22;43.38;100999.56;5070986;27;46387;-73
2022/02/18 19:58:41;;;;;;;;;4.33;3.67;;;;;23.20;43.65;101012.41;5069030;27;45615;-74
2022/02/18 20:01:07;;;;;;;;;5.00;3.33;;;;;23.23;43.91;101014.81;5066446;28;45453;-72
2022/02/18 20:03:32;;;;;;;;;4.33;3.33;;;;;23.24;44.12;101020.06;5072400;27;45646;-73
2022/02/18 20:05:58;;;;;;;;;2.33;2.33;;;;;23.24;44.22;101027.34;5070045;27;46048;-73
2022/02/18 20:08:23;;;;;;;;;3.00;3.00;;;;;23.22;44.19;101027.47;5072731;28;45526;-73
2022/02/18 20:10:49;;;;;;;;;7.00;6.00;;;;;23.25;44.53;101034.44;5059002;27;45604;-74
2022/02/18 20:13:15;;;;;;;;;7.33;4.33;;;;;23.28;44.08;101045.81;5061014;27;45585;-72
2022/02/18 20:15:41;;;;;;;;;7.00;5.00;;;;;23.29;43.95;101043.94;5070114;27;45479;-72
2022/02/18 20:18:06;;;;;;;;;4.67;2.67;;;;;23.27;44.46;101048.69;5072388;27;45604;-72
2022/02/18 20:20:33;;;;;;;;;6.33;3.33;;;;;23.24;44.02;101057.13;5069994;27;45562;-72
2022/02/18 20:22:59;;;;;;;;;6.67;4.33;;;;;23.21;44.09;101062.88;5072954;27;45373;-71
2022/02/18 20:25:25;;;;;;;;;7.33;5.67;;;;;23.18;44.44;101069.44;5070466;27;46123;-72
2022/02/18 20:27:51;;;;;;;;;3.00;3.00;;;;;23.15;44.44;101077.88;5074542;27;45747;-71